Terminal Aerodrome Forecast
Issued by NWS

Home | Current Version | Previous Version | Text Only | Print | Product List | Glossary On
Versions: 1 2 3 4 5 6 7 8 9 10 11 12 13
000
FTUS44 KLIX 302337
TAFMSY
TAF
KMSY 302337Z 3100/3124 16008KT P6SM FEW030 SCT110 BKN250
     FM310300 VRB04KT P6SM FEW050 SCT150
     FM311530 01008KT P6SM SCT040 SCT250=

USA.gov is the U.S. government's official web portal to all federal, state and local government web resources and services.